Station Historical Data
Daily Summary for April 11, 2017 Units:  Metric    English   Both
« Previous Day
Next Day »
Daily Weekly Monthly Yearly Custom
  High: Low: Average:
Temperature: 20 °C 6.9 °C 14.9 °C
Dew Point: 13.7 °C 4.7 °C 10.8 °C
Humidity: 87% 66% 77%
Wind Speed: 20.9km/h 0km/h 6.4km/h
Wind Gust: 29km/h - -
Wind- - SW
Pressure: 1020.9 hPa 1014.8 hPa -
Precipitation: 0 mm    
Historical Graphs
 
 
Tabular Data for April 11, 2017
Time Temperature Dew Point Pressure Wind Wind Speed Wind Gust Humidity Rainfall Rate (Hourly)
00:04 15.1 °C 10.9 °C 1015.1 hPa Calm   3.2 km/h 76% 0 mm
00:09 15.1 °C 10.8 °C 1014.8 hPa Calm     76% 0 mm
00:14 14.9 °C 10.7 °C 1014.8 hPa Calm     76% 0 mm
00:19 14.8 °C 10.7 °C 1014.8 hPa Calm     76% 0 mm
00:24 14.7 °C 10.6 °C 1014.8 hPa Calm     76% 0 mm
00:29 14.7 °C 10.5 °C 1014.8 hPa SSE 1.6 km/h 3.2 km/h 76% 0 mm
00:34 14.6 °C 10.4 °C 1014.8 hPa Calm   3.2 km/h 76% 0 mm
00:39 14.4 °C 10.3 °C 1014.8 hPa Calm   3.2 km/h 76% 0 mm
00:44 14.3 °C 10.3 °C 1014.8 hPa SSE 1.6 km/h 4.8 km/h 77% 0 mm
00:49 14.3 °C 10.3 °C 1015.1 hPa SSE 1.6 km/h 4.8 km/h 77% 0 mm
00:54 14.2 °C 10.4 °C 1015.1 hPa SSE 4.8 km/h 6.4 km/h 78% 0 mm
00:59 14.2 °C 10.4 °C 1015.1 hPa South 3.2 km/h 6.4 km/h 78% 0 mm
01:04 14.2 °C 10.4 °C 1015.1 hPa South 4.8 km/h 6.4 km/h 78% 0 mm
01:09 14.2 °C 10.6 °C 1015.1 hPa South 3.2 km/h 6.4 km/h 79% 0 mm
01:14 14.3 °C 10.7 °C 1015.8 hPa SSW 3.2 km/h 8 km/h 79% 0 mm
01:19 14.3 °C 10.7 °C 1015.5 hPa WSW 1.6 km/h 8 km/h 79% 0 mm
01:24 14.4 °C 10.8 °C 1015.1 hPa Calm   4.8 km/h 79% 0 mm
01:29 14.4 °C 10.8 °C 1015.1 hPa Calm     79% 0 mm
01:34 14.4 °C 10.8 °C 1015.5 hPa WSW 1.6 km/h 3.2 km/h 79% 0 mm
01:39 14.4 °C 10.8 °C 1015.1 hPa Calm   3.2 km/h 79% 0 mm
01:44 14.4 °C 10.8 °C 1015.1 hPa Calm   3.2 km/h 79% 0 mm
01:49 14.4 °C 10.8 °C 1014.8 hPa Calm     79% 0 mm
01:59 14.4 °C 10.8 °C 1014.8 hPa Calm     79% 0 mm
02:04 14.3 °C 10.7 °C 1014.8 hPa Calm     79% 0 mm
02:09 14.3 °C 10.9 °C 1015.1 hPa Calm     80% 0 mm
02:14 14.3 °C 10.9 °C 1015.1 hPa Calm   4.8 km/h 80% 0 mm
02:19 14.3 °C 10.9 °C 1015.1 hPa Calm   4.8 km/h 80% 0 mm
02:24 14.3 °C 10.9 °C 1015.5 hPa Calm   4.8 km/h 80% 0 mm
02:29 14.3 °C 10.9 °C 1015.5 hPa SSW 1.6 km/h 4.8 km/h 80% 0 mm
02:34 14.3 °C 10.7 °C 1015.1 hPa South 3.2 km/h 4.8 km/h 79% 0 mm
02:39 14.3 °C 10.9 °C 1015.1 hPa South 3.2 km/h 8 km/h 80% 0 mm
02:44 14.3 °C 10.7 °C 1015.1 hPa South 3.2 km/h 8 km/h 79% 0 mm
02:49 14.3 °C 10.7 °C 1015.1 hPa South 1.6 km/h 4.8 km/h 79% 0 mm
02:54 14.3 °C 10.7 °C 1015.1 hPa SSW 3.2 km/h 4.8 km/h 79% 0 mm
02:59 14.2 °C 10.6 °C 1015.5 hPa SSW 1.6 km/h 4.8 km/h 79% 0 mm
03:04 14.1 °C 10.5 °C 1015.1 hPa South 3.2 km/h 6.4 km/h 79% 0 mm
03:09 14.2 °C 10.8 °C 1015.1 hPa South 3.2 km/h 6.4 km/h 80% 0 mm
03:14 14.1 °C 10.7 °C 1015.1 hPa South 3.2 km/h 8 km/h 80% 0 mm
03:19 14.2 °C 10.9 °C 1015.1 hPa SSW 1.6 km/h 8 km/h 81% 0 mm
03:24 14.2 °C 11.2 °C 1015.5 hPa SW 1.6 km/h 14.5 km/h 82% 0 mm
03:29 14.4 °C 11.4 °C 1015.5 hPa SSW 6.4 km/h 12.9 km/h 82% 0 mm
03:34 14.7 °C 11.7 °C 1015.5 hPa SW 4.8 km/h 17.7 km/h 82% 0 mm
03:39 15.1 °C 11.8 °C 1015.5 hPa SW 8 km/h 17.7 km/h 81% 0 mm
03:44 15.4 °C 11.9 °C 1015.5 hPa SW 9.7 km/h 19.3 km/h 80% 0 mm
03:49 15.7 °C 11.8 °C 1015.1 hPa SW 9.7 km/h 19.3 km/h 78% 0 mm
03:54 15.8 °C 11.8 °C 1015.1 hPa SW 9.7 km/h 17.7 km/h 77% 0 mm
03:59 15.9 °C 11.7 °C 1015.5 hPa SW 9.7 km/h 17.7 km/h 76% 0 mm
04:04 16 °C 11.6 °C 1015.8 hPa SW 9.7 km/h 22.5 km/h 75% 0 mm
04:09 16 °C 11.6 °C 1015.8 hPa SW 9.7 km/h 16.1 km/h 75% 0 mm
04:14 15.9 °C 11.5 °C 1015.5 hPa SW 11.3 km/h 17.7 km/h 75% 0 mm
04:19 15.9 °C 11.3 °C 1015.5 hPa WSW 8 km/h 16.1 km/h 74% 0 mm
04:24 15.7 °C 11.3 °C 1015.5 hPa SSW 9.7 km/h 14.5 km/h 75% 0 mm
04:29 15.5 °C 11.1 °C 1015.8 hPa South 8 km/h 14.5 km/h 75% 0 mm
04:34 15.3 °C 10.9 °C 1015.5 hPa SW 8 km/h 16.1 km/h 75% 0 mm
04:39 15 °C 10.6 °C 1015.8 hPa SW 8 km/h 16.1 km/h 75% 0 mm
04:44 14.8 °C 10.6 °C 1015.8 hPa SW 8 km/h 16.1 km/h 76% 0 mm
04:49 14.7 °C 10.7 °C 1015.8 hPa SW 8 km/h 16.1 km/h 77% 0 mm
04:54 14.6 °C 10.6 °C 1016.1 hPa SW 8 km/h 17.7 km/h 77% 0 mm
04:59 14.4 °C 10.4 °C 1016.1 hPa SW 9.7 km/h 19.3 km/h 77% 0 mm
05:04 14.4 °C 10.4 °C 1016.1 hPa SW 8 km/h 19.3 km/h 77% 0 mm
05:09 14.3 °C 10.3 °C 1016.5 hPa SSW 11.3 km/h 22.5 km/h 77% 0 mm
05:14 14.3 °C 10.2 °C 1016.5 hPa SW 11.3 km/h 22.5 km/h 76% 0 mm
05:19 14.3 °C 10.2 °C 1016.5 hPa WSW 19.3 km/h 27.4 km/h 76% 0 mm
05:24 14.3 °C 10.2 °C 1016.5 hPa SW 12.9 km/h 27.4 km/h 76% 0 mm
05:29 14.3 °C 10.1 °C 1016.1 hPa SSW 16.1 km/h 27.4 km/h 76% 0 mm
05:39 14.1 °C 9.9 °C 1016.5 hPa WSW 12.9 km/h 22.5 km/h 76% 0 mm
05:44 13.9 °C 9.8 °C 1016.5 hPa WSW 11.3 km/h 22.5 km/h 76% 0 mm
05:49 13.8 °C 9.9 °C 1016.5 hPa SW 9.7 km/h 22.5 km/h 77% 0 mm
05:54 13.7 °C 9.7 °C 1016.5 hPa SSW 6.4 km/h 17.7 km/h 77% 0 mm
05:59 13.5 °C 9.6 °C 1016.1 hPa WSW 12.9 km/h 16.1 km/h 77% 0 mm
06:04 13.3 °C 9.6 °C 1016.1 hPa WSW 3.2 km/h 14.5 km/h 78% 0 mm
06:09 13.2 °C 9.6 °C 1016.1 hPa SW 14.5 km/h 14.5 km/h 79% 0 mm
06:14 13.1 °C 9.7 °C 1016.1 hPa SW 8 km/h 17.7 km/h 80% 0 mm
06:19 13.1 °C 9.7 °C 1016.1 hPa SW 8 km/h 17.7 km/h 80% 0 mm
06:24 13 °C 9.6 °C 1015.8 hPa SW 6.4 km/h 11.3 km/h 80% 0 mm
06:29 13 °C 9.8 °C 1015.5 hPa SSW 6.4 km/h 12.9 km/h 81% 0 mm
06:34 13.1 °C 9.9 °C 1015.8 hPa SSW 6.4 km/h 17.7 km/h 81% 0 mm
06:39 13.2 °C 10.2 °C 1015.8 hPa SSW 6.4 km/h 17.7 km/h 82% 0 mm
06:44 13.4 °C 10.4 °C 1015.8 hPa SSW 11.3 km/h 14.5 km/h 82% 0 mm
06:49 13.6 °C 10.6 °C 1015.8 hPa SSW 8 km/h 14.5 km/h 82% 0.25 mm
06:54 13.7 °C 10.7 °C 1015.8 hPa SW 6.4 km/h 11.3 km/h 82% 0.25 mm
06:59 13.8 °C 10.6 °C 1016.1 hPa WSW 9.7 km/h 9.7 km/h 81% 0.25 mm
07:04 13.9 °C 10.7 °C 1016.5 hPa WSW 3.2 km/h 11.3 km/h 81% 0.25 mm
07:09 14.1 °C 10.7 °C 1016.5 hPa SW 6.4 km/h 11.3 km/h 80% 0.25 mm
07:14 14.2 °C 10.8 °C 1016.5 hPa South 3.2 km/h 11.3 km/h 80% 0.25 mm
07:19 14.2 °C 10.6 °C 1016.5 hPa SSW 4.8 km/h 11.3 km/h 79% 0.25 mm
07:24 14.3 °C 10.7 °C 1016.1 hPa SSW 4.8 km/h 11.3 km/h 79% 0.25 mm
07:29 14.4 °C 10.8 °C 1016.5 hPa SSW 4.8 km/h 11.3 km/h 79% 0.25 mm
07:34 14.5 °C 10.9 °C 1016.5 hPa SSW 4.8 km/h 11.3 km/h 79% 0.25 mm
07:39 14.6 °C 10.8 °C 1016.1 hPa South 6.4 km/h 9.7 km/h 78% 0.25 mm
07:44 14.8 °C 11 °C 1016.1 hPa South 4.8 km/h 8 km/h 78% 0.25 mm
07:49 14.9 °C 11.1 °C 1016.1 hPa SSW 4.8 km/h 8 km/h 78% 0 mm
07:54 14.9 °C 11.2 °C 1016.1 hPa SW 1.6 km/h 8 km/h 78% 0 mm
07:59 14.9 °C 11.2 °C 1016.1 hPa Calm   4.8 km/h 78% 0 mm
08:04 15 °C 11.2 °C 1016.5 hPa Calm   3.2 km/h 78% 0 mm
08:09 15.3 °C 11.3 °C 1016.1 hPa Calm   4.8 km/h 77% 0 mm
08:14 15.4 °C 11.4 °C 1016.1 hPa West 3.2 km/h 6.4 km/h 77% 0 mm
08:19 15.7 °C 11.4 °C 1016.1 hPa West 1.6 km/h 6.4 km/h 76% 0 mm
08:24 15.8 °C 11.6 °C 1016.1 hPa SW 4.8 km/h 6.4 km/h 76% 0 mm
08:29 16.2 °C 11.9 °C 1016.1 hPa SW 6.4 km/h 9.7 km/h 76% 0 mm
08:34 16.6 °C 12.1 °C 1016.1 hPa WSW 6.4 km/h 6.4 km/h 75% 0 mm
08:39 16.7 °C 12 °C 1016.5 hPa WSW 4.8 km/h 9.7 km/h 74% 0 mm
08:44 16.8 °C 12.1 °C 1016.5 hPa WSW 4.8 km/h 8 km/h 74% 0 mm
08:49 16.9 °C 12 °C 1016.5 hPa WSW 6.4 km/h 8 km/h 73% 0 mm
08:54 17.1 °C 12.2 °C 1016.5 hPa WSW 3.2 km/h 8 km/h 73% 0 mm
08:59 17.2 °C 12.3 °C 1016.8 hPa WSW 4.8 km/h 11.3 km/h 73% 0 mm
09:04 17.3 °C 12.2 °C 1016.8 hPa WSW 4.8 km/h 12.9 km/h 72% 0 mm
09:09 17.4 °C 12.1 °C 1016.8 hPa WSW 4.8 km/h 12.9 km/h 71% 0 mm
09:19 17.3 °C 11.8 °C 1017.2 hPa SW 4.8 km/h 9.7 km/h 70% 0 mm
09:24 17.4 °C 11.8 °C 1016.8 hPa WSW 4.8 km/h 14.5 km/h 70% 0 mm
09:29 17.3 °C 11.6 °C 1016.8 hPa WSW 4.8 km/h 14.5 km/h 69% 0 mm
09:34 17.3 °C 11.8 °C 1016.8 hPa WSW 6.4 km/h 11.3 km/h 70% 0 mm
09:39 17.3 °C 11.8 °C 1016.8 hPa SSW 3.2 km/h 12.9 km/h 70% 0 mm
09:44 17.2 °C 11.7 °C 1016.8 hPa WSW 4.8 km/h 11.3 km/h 70% 0 mm
09:49 17.3 °C 11.8 °C 1017.2 hPa WSW 9.7 km/h 12.9 km/h 70% 0 mm
09:54 17.4 °C 11.7 °C 1017.2 hPa West 6.4 km/h 17.7 km/h 69% 0 mm
09:59 17.7 °C 11.9 °C 1017.2 hPa WSW 8 km/h 17.7 km/h 69% 0 mm
10:04 17.7 °C 11.7 °C 1017.2 hPa WSW 6.4 km/h 14.5 km/h 68% 0 mm
10:09 17.5 °C 11.5 °C 1017.2 hPa WSW 6.4 km/h 16.1 km/h 68% 0 mm
10:14 17.4 °C 11.7 °C 1017.2 hPa West 6.4 km/h 9.7 km/h 69% 0 mm
10:19 17.3 °C 11.6 °C 1017.2 hPa West 8 km/h 11.3 km/h 69% 0 mm
10:24 17.4 °C 11.4 °C 1017.2 hPa West 4.8 km/h 14.5 km/h 68% 0 mm
10:29 17.5 °C 11.7 °C 1017.2 hPa WSW 4.8 km/h 14.5 km/h 69% 0 mm
10:34 17.6 °C 11.8 °C 1017.2 hPa WSW 3.2 km/h 8 km/h 69% 0 mm
10:39 17.7 °C 11.7 °C 1017.2 hPa WSW 4.8 km/h 8 km/h 68% 0 mm
10:44 17.7 °C 11.7 °C 1017.2 hPa SW 4.8 km/h 9.7 km/h 68% 0 mm
10:49 17.6 °C 11.4 °C 1017.2 hPa SW 4.8 km/h 11.3 km/h 67% 0 mm
10:54 17.4 °C 11.5 °C 1017.2 hPa SW 4.8 km/h 12.9 km/h 68% 0 mm
10:59 17.3 °C 11.4 °C 1017.5 hPa SW 4.8 km/h 11.3 km/h 68% 0 mm
11:04 17.4 °C 11.7 °C 1017.5 hPa SW 4.8 km/h 11.3 km/h 69% 0 mm
11:09 17.6 °C 11.8 °C 1017.5 hPa SW 8 km/h 11.3 km/h 69% 0 mm
11:19 17.4 °C 11.7 °C 1017.5 hPa SW 3.2 km/h 6.4 km/h 69% 0 mm
11:24 17.5 °C 11.7 °C 1017.5 hPa WSW 1.6 km/h 6.4 km/h 69% 0 mm
11:29 17.4 °C 11.7 °C 1017.5 hPa WSW 3.2 km/h 8 km/h 69% 0 mm
11:34 17.4 °C 11.4 °C 1017.5 hPa SW 3.2 km/h 8 km/h 68% 0 mm
11:39 17.4 °C 11.4 °C 1017.5 hPa SW 3.2 km/h 8 km/h 68% 0 mm
11:44 17.4 °C 11.8 °C 1017.8 hPa SW 3.2 km/h 6.4 km/h 70% 0 mm
11:49 17.3 °C 11.6 °C 1017.8 hPa WSW 3.2 km/h 6.4 km/h 69% 0 mm
11:54 17.1 °C 11.4 °C 1017.8 hPa WSW 3.2 km/h 8 km/h 69% 0 mm
11:59 16.9 °C 11.4 °C 1017.8 hPa SW 4.8 km/h 8 km/h 70% 0 mm
12:04 16.9 °C 11.4 °C 1017.8 hPa South 1.6 km/h 6.4 km/h 70% 0 mm
12:09 16.8 °C 11.3 °C 1017.8 hPa SW 1.6 km/h 9.7 km/h 70% 0 mm
12:14 16.7 °C 11.4 °C 1018.2 hPa WSW 3.2 km/h 8 km/h 71% 0 mm
12:19 16.6 °C 11.6 °C 1018.2 hPa SSW 4.8 km/h 11.3 km/h 72% 0 mm
12:24 16.4 °C 11.6 °C 1017.5 hPa South 4.8 km/h 12.9 km/h 73% 0 mm
12:29 16 °C 11.6 °C 1018.5 hPa WSW 4.8 km/h 16.1 km/h 75% 0 mm
12:34 15.3 °C 11.1 °C 1017.8 hPa WSW 9.7 km/h 19.3 km/h 76% 0 mm
12:39 14.8 °C 11 °C 1018.5 hPa SW 9.7 km/h 19.3 km/h 78% 0 mm
12:44 14.5 °C 10.9 °C 1018.2 hPa SW 8 km/h 11.3 km/h 79% 0 mm
12:49 14.4 °C 11 °C 1017.5 hPa South 6.4 km/h 11.3 km/h 80% 0 mm
12:54 14.5 °C 11.3 °C 1018.2 hPa SW 4.8 km/h 9.7 km/h 81% 0 mm
12:59 14.6 °C 11.3 °C 1017.5 hPa SSW 4.8 km/h 9.7 km/h 81% 0 mm
13:04 15 °C 11.8 °C 1018.2 hPa SSW 6.4 km/h 11.3 km/h 81% 0 mm
13:09 15.2 °C 11.9 °C 1018.5 hPa SSW 6.4 km/h 12.9 km/h 81% 0 mm
13:14 15.4 °C 12.2 °C 1018.2 hPa SW 6.4 km/h 12.9 km/h 81% 0 mm
13:19 15.8 °C 12.5 °C 1018.2 hPa SSW 4.8 km/h 14.5 km/h 81% 0 mm
13:24 16.2 °C 12.9 °C 1018.5 hPa SSW 4.8 km/h 12.9 km/h 81% 0 mm
13:29 16.3 °C 12.9 °C 1018.5 hPa SSW 8 km/h 12.9 km/h 80% 0 mm
13:34 16.3 °C 12.7 °C 1018.5 hPa SSW 8 km/h 19.3 km/h 79% 0 mm
13:39 16.3 °C 12.6 °C 1018.5 hPa SSW 3.2 km/h 16.1 km/h 79% 0 mm
13:44 16.2 °C 12.6 °C 1018.2 hPa South 6.4 km/h 12.9 km/h 79% 0 mm
13:49 16.1 °C 12.7 °C 1017.8 hPa SSW 4.8 km/h 14.5 km/h 80% 0 mm
13:54 16.1 °C 12.7 °C 1017.8 hPa SSW 6.4 km/h 14.5 km/h 80% 0 mm
13:59 16.2 °C 12.8 °C 1018.2 hPa SW 6.4 km/h 12.9 km/h 80% 0 mm
14:04 16.3 °C 12.7 °C 1018.2 hPa SSW 8 km/h 19.3 km/h 79% 0 mm
14:09 16.4 °C 12.6 °C 1018.2 hPa SSW 8 km/h 19.3 km/h 78% 0 mm
14:14 16.6 °C 12.7 °C 1018.2 hPa South 8 km/h 17.7 km/h 78% 0 mm
14:19 16.7 °C 12.6 °C 1018.2 hPa SW 11.3 km/h 16.1 km/h 77% 0 mm
14:24 16.8 °C 12.5 °C 1018.2 hPa SSW 16.1 km/h 20.9 km/h 76% 0 mm
14:29 16.8 °C 12.4 °C 1018.2 hPa South 4.8 km/h 20.9 km/h 75% 0 mm
14:34 16.8 °C 12.4 °C 1018.2 hPa SSW 8 km/h 20.9 km/h 75% 0 mm
14:39 17 °C 12.6 °C 1017.8 hPa SSW 9.7 km/h 22.5 km/h 75% 0 mm
14:44 17.2 °C 12.7 °C 1017.8 hPa SW 1.6 km/h 12.9 km/h 75% 0 mm
14:49 17.1 °C 12.7 °C 1018.2 hPa SSW 9.7 km/h 17.7 km/h 75% 0 mm
14:54 17 °C 12.3 °C 1018.2 hPa South 8 km/h 22.5 km/h 74% 0 mm
14:59 16.8 °C 12.4 °C 1017.8 hPa SW 8 km/h 24.1 km/h 75% 0 mm
15:04 16.9 °C 12.6 °C 1017.8 hPa SSW 11.3 km/h 24.1 km/h 76% 0 mm
15:09 17.4 °C 13.1 °C 1017.8 hPa SSW 9.7 km/h 16.1 km/h 76% 0 mm
15:14 17.8 °C 13.1 °C 1017.8 hPa SSW 9.7 km/h 20.9 km/h 74% 0 mm
15:19 18.1 °C 13.3 °C 1017.8 hPa WSW 4.8 km/h 17.7 km/h 74% 0 mm
15:24 18.6 °C 13.4 °C 1017.8 hPa SSW 8 km/h 14.5 km/h 72% 0 mm
15:29 18.9 °C 13.5 °C 1017.8 hPa SSW 8 km/h 16.1 km/h 71% 0 mm
15:34 19.3 °C 13.5 °C 1017.5 hPa SSW 9.7 km/h 19.3 km/h 69% 0 mm
15:39 18.8 °C 12.9 °C 1017.8 hPa SSW 9.7 km/h 20.9 km/h 69% 0 mm
15:44 19 °C 13.6 °C 1017.5 hPa SW 8 km/h 17.7 km/h 71% 0 mm
15:49 19.1 °C 13.3 °C 1017.5 hPa SSW 9.7 km/h 24.1 km/h 69% 0 mm
15:54 19.3 °C 13.4 °C 1017.5 hPa South 9.7 km/h 19.3 km/h 69% 0 mm
16:04 19.6 °C 13.7 °C 1017.5 hPa SW 9.7 km/h 19.3 km/h 69% 0 mm
16:09 20 °C 13.4 °C 1017.5 hPa SW 9.7 km/h 19.3 km/h 66% 0 mm
16:14 19.4 °C 13.2 °C 1017.5 hPa SW 9.7 km/h 20.9 km/h 67% 0 mm
16:19 19.1 °C 12.8 °C 1017.5 hPa SW 9.7 km/h 25.7 km/h 67% 0 mm
16:24 19 °C 13.2 °C 1017.5 hPa West 4.8 km/h 17.7 km/h 69% 0 mm
16:29 18.9 °C 12.8 °C 1017.5 hPa WSW 11.3 km/h 19.3 km/h 68% 0 mm
16:34 18.6 °C 12.6 °C 1017.5 hPa SW 16.1 km/h 20.9 km/h 68% 0 mm
16:44 18.2 °C 12.7 °C 1017.5 hPa SW 9.7 km/h 17.7 km/h 70% 0 mm
16:49 18 °C 12.4 °C 1017.5 hPa WSW 11.3 km/h 17.7 km/h 70% 0 mm
16:54 17.9 °C 12.6 °C 1017.5 hPa SSW 9.7 km/h 14.5 km/h 71% 0 mm
16:59 17.7 °C 12.4 °C 1017.5 hPa South 8 km/h 14.5 km/h 71% 0 mm
17:04 17.7 °C 12.6 °C 1017.5 hPa SW 4.8 km/h 11.3 km/h 72% 0 mm
17:09 17.7 °C 12.4 °C 1017.5 hPa SW 6.4 km/h 12.9 km/h 71% 0 mm
17:14 17.6 °C 12.5 °C 1017.8 hPa SW 6.4 km/h 12.9 km/h 72% 0 mm
17:19 17.4 °C 12.6 °C 1017.5 hPa SW 6.4 km/h 16.1 km/h 73% 0 mm
17:24 17.2 °C 12.3 °C 1017.5 hPa WSW 8 km/h 16.1 km/h 73% 0 mm
17:29 17.1 °C 12.4 °C 1017.8 hPa WSW 8 km/h 14.5 km/h 74% 0 mm
17:34 17 °C 12.1 °C 1017.8 hPa WSW 6.4 km/h 14.5 km/h 73% 0 mm
17:39 16.9 °C 12.3 °C 1017.5 hPa SW 4.8 km/h 8 km/h 74% 0 mm
17:44 17 °C 12.3 °C 1017.8 hPa SW 4.8 km/h 12.9 km/h 74% 0 mm
17:49 17.1 °C 12.4 °C 1017.8 hPa SW 4.8 km/h 12.9 km/h 74% 0 mm
17:54 17.1 °C 12.2 °C 1017.5 hPa SSW 6.4 km/h 12.9 km/h 73% 0 mm
17:59 17.1 °C 12.4 °C 1017.8 hPa WSW 9.7 km/h 14.5 km/h 74% 0 mm
18:04 17 °C 12.3 °C 1017.8 hPa SSW 8 km/h 17.7 km/h 74% 0 mm
18:09 16.8 °C 12.2 °C 1017.8 hPa SSW 11.3 km/h 12.9 km/h 74% 0 mm
18:14 16.7 °C 12 °C 1017.8 hPa SW 8 km/h 12.9 km/h 74% 0 mm
18:19 16.4 °C 12 °C 1018.2 hPa SW 8 km/h 16.1 km/h 75% 0 mm
18:24 16.3 °C 12.1 °C 1017.8 hPa WSW 8 km/h 16.1 km/h 76% 0 mm
18:34 16.2 °C 12 °C 1017.5 hPa WSW 6.4 km/h 14.5 km/h 76% 0 mm
18:39 16 °C 11.8 °C 1017.5 hPa WSW 4.8 km/h 16.1 km/h 76% 0 mm
18:44 15.9 °C 11.8 °C 1017.5 hPa WSW 6.4 km/h 16.1 km/h 77% 0 mm
18:49 15.8 °C 11.8 °C 1017.5 hPa SW 9.7 km/h 9.7 km/h 77% 0 mm
18:54 15.8 °C 11.8 °C 1017.5 hPa WSW 6.4 km/h 9.7 km/h 77% 0 mm
18:59 15.7 °C 11.7 °C 1017.5 hPa SW 4.8 km/h 6.4 km/h 77% 0 mm
19:04 15.5 °C 11.5 °C 1017.5 hPa SSW 4.8 km/h 6.4 km/h 77% 0 mm
19:09 15.3 °C 11.5 °C 1017.5 hPa SSW 3.2 km/h 8 km/h 78% 0 mm
19:14 15.2 °C 11.6 °C 1017.5 hPa South 6.4 km/h 9.7 km/h 79% 0 mm
19:19 15 °C 11.4 °C 1017.2 hPa SSW 4.8 km/h 9.7 km/h 79% 0 mm
19:24 14.9 °C 11.3 °C 1017.2 hPa SSW 4.8 km/h 11.3 km/h 79% 0 mm
19:29 14.7 °C 11.3 °C 1017.2 hPa SSW 4.8 km/h 11.3 km/h 80% 0 mm
19:34 14.5 °C 11.1 °C 1017.2 hPa SSW 4.8 km/h 8 km/h 80% 0 mm
19:39 14.3 °C 10.9 °C 1017.2 hPa SSW 1.6 km/h 11.3 km/h 80% 0 mm
19:44 14.2 °C 11 °C 1017.5 hPa WSW 4.8 km/h 9.7 km/h 81% 0 mm
19:49 14.1 °C 10.9 °C 1017.2 hPa SSW 4.8 km/h 9.7 km/h 81% 0 mm
19:54 14.1 °C 10.8 °C 1017.5 hPa SSW 3.2 km/h 8 km/h 81% 0 mm
19:59 14 °C 10.8 °C 1017.5 hPa WSW 8 km/h 16.1 km/h 81% 0 mm
20:04 13.9 °C 10.7 °C 1017.5 hPa West 4.8 km/h 14.5 km/h 81% 0 mm
20:09 14 °C 11 °C 1017.5 hPa WSW 4.8 km/h 11.3 km/h 82% 0 mm
20:14 14.1 °C 11.2 °C 1017.8 hPa West 6.4 km/h 12.9 km/h 83% 0 mm
20:19 14.3 °C 11.6 °C 1017.5 hPa WSW 6.4 km/h 16.1 km/h 84% 0 mm
20:24 14.5 °C 11.8 °C 1017.5 hPa WSW 8 km/h 16.1 km/h 84% 0 mm
20:29 14.6 °C 11.9 °C 1017.5 hPa WSW 6.4 km/h 12.9 km/h 84% 0 mm
20:34 14.6 °C 11.9 °C 1017.5 hPa West 4.8 km/h 12.9 km/h 84% 0 mm
20:39 14.6 °C 11.9 °C 1017.8 hPa WSW 4.8 km/h 11.3 km/h 84% 0 mm
20:44 14.6 °C 11.7 °C 1017.8 hPa WSW 4.8 km/h 9.7 km/h 83% 0 mm
20:49 14.4 °C 11.3 °C 1018.2 hPa SW 6.4 km/h 9.7 km/h 82% 0 mm
20:54 13.9 °C 10.7 °C 1018.2 hPa SW 6.4 km/h 12.9 km/h 81% 0 mm
20:59 13.6 °C 10.3 °C 1018.2 hPa SW 9.7 km/h 20.9 km/h 81% 0 mm
21:04 12.9 °C 9.5 °C 1018.5 hPa SW 11.3 km/h 24.1 km/h 80% 0 mm
21:09 12.1 °C 8.9 °C 1018.8 hPa SSW 11.3 km/h 24.1 km/h 81% 0 mm
21:14 11.6 °C 8.4 °C 1018.8 hPa SW 17.7 km/h 29 km/h 81% 0 mm
21:19 11.3 °C 8 °C 1018.8 hPa SW 12.9 km/h 29 km/h 80% 0 mm
21:24 11.2 °C 7.7 °C 1018.8 hPa WSW 9.7 km/h 25.7 km/h 79% 0 mm
21:29 11 °C 7.3 °C 1019.2 hPa SW 20.9 km/h 29 km/h 78% 0 mm
21:34 10.8 °C 7.1 °C 1019.2 hPa WSW 12.9 km/h 24.1 km/h 78% 0 mm
21:39 10.6 °C 6.9 °C 1019.2 hPa SSW 17.7 km/h 20.9 km/h 78% 0 mm
21:44 10.5 °C 6.8 °C 1019.2 hPa SW 9.7 km/h 17.7 km/h 78% 0 mm
21:49 10.4 °C 6.8 °C 1019.5 hPa WSW 6.4 km/h 19.3 km/h 78% 0 mm
21:54 10.3 °C 6.6 °C 1019.5 hPa SW 9.7 km/h 19.3 km/h 78% 0 mm
21:59 9.9 °C 6.3 °C 1019.5 hPa SW 11.3 km/h 27.4 km/h 78% 0 mm
22:04 9.7 °C 6.2 °C 1019.9 hPa WSW 12.9 km/h 27.4 km/h 79% 0 mm
22:09 9.4 °C 6 °C 1019.9 hPa SW 11.3 km/h 20.9 km/h 79% 0 mm
22:14 9.2 °C 5.9 °C 1019.9 hPa SW 9.7 km/h 17.7 km/h 80% 0 mm
22:19 9 °C 5.7 °C 1019.9 hPa SSW 11.3 km/h 22.5 km/h 80% 0 mm
22:24 8.7 °C 5.7 °C 1020.2 hPa SW 12.9 km/h 24.1 km/h 81% 0 mm
22:29 8.4 °C 5.4 °C 1020.2 hPa SW 8 km/h 22.5 km/h 81% 0 mm
22:34 8.2 °C 5.3 °C 1020.2 hPa WSW 11.3 km/h 20.9 km/h 82% 0 mm
22:39 8 °C 5.1 °C 1020.2 hPa WSW 11.3 km/h 19.3 km/h 82% 0 mm
22:44 7.8 °C 5.1 °C 1020.2 hPa SW 9.7 km/h 14.5 km/h 83% 0 mm
22:49 7.6 °C 4.9 °C 1020.2 hPa SW 3.2 km/h 14.5 km/h 83% 0 mm
22:54 7.4 °C 4.8 °C 1020.2 hPa SW 6.4 km/h 14.5 km/h 84% 0 mm
22:59 7.3 °C 5 °C 1020.2 hPa SW 6.4 km/h 14.5 km/h 85% 0 mm
23:04 7.2 °C 4.9 °C 1020.5 hPa SW 8 km/h 17.7 km/h 85% 0 mm
23:09 7.1 °C 4.8 °C 1020.5 hPa SW 8 km/h 17.7 km/h 85% 0 mm
23:14 7.1 °C 4.7 °C 1020.5 hPa SW 8 km/h 14.5 km/h 85% 0 mm
23:19 6.9 °C 4.8 °C 1020.5 hPa SW 9.7 km/h 11.3 km/h 86% 0 mm
23:29 6.9 °C 4.8 °C 1020.5 hPa SW 4.8 km/h 8 km/h 86% 0 mm
23:34 7.1 °C 5.1 °C 1020.5 hPa SW 8 km/h 9.7 km/h 87% 0 mm
23:39 7 °C 5 °C 1020.5 hPa SW 4.8 km/h 11.3 km/h 87% 0 mm
23:44 7.1 °C 5.1 °C 1020.9 hPa SSW 1.6 km/h 12.9 km/h 87% 0 mm
23:49 7.1 °C 5.1 °C 1020.9 hPa SW 4.8 km/h 14.5 km/h 87% 0 mm
23:54 7.1 °C 5.1 °C 1020.9 hPa SW 6.4 km/h 14.5 km/h 87% 0 mm
23:59 7 °C 5 °C 1020.9 hPa SW 8 km/h 14.5 km/h 87% 0 mm
Buffalo, New York, USA
Compliments of Weather Underground - 2.5 mb